Time;durP1;ratioP1;P1;durP2;ratioP2;P2;SDS_P1;SDS_P2;PMS_P1;PMS_P2;Temp;Humidity;BMP_temperature;BMP_pressure;BME280_temperature;BME280_humidity;BME280_pressure;Samples;Min_cycle;Max_cycle;Signal;HPM_P1;HPM_P2
2022/11/29 00:01:10;;;;;;;12.35;5.28;;;7.80;99.90;;;;;;6185160;23;20450;-85
2022/11/29 00:03:36;;;;;;;9.80;4.30;;;8.40;99.90;;;;;;6158535;23;20397;-84
2022/11/29 00:06:12;;;;;;;10.50;4.05;;;8.10;99.90;;;;;;6184947;23;20025;-86
2022/11/29 00:08:40;;;;;;;8.75;3.60;;;7.80;99.90;;;;;;6185303;23;20036;-86
2022/11/29 00:11:08;;;;;;;12.68;4.85;;;7.90;99.90;;;;;;6184876;23;20348;-85
2022/11/29 00:13:34;;;;;;;11.07;4.45;;;8.60;99.90;;;;;;6184593;23;20039;-86
2022/11/29 00:16:04;;;;;;;12.00;4.97;;;7.80;99.90;;;;;;6158296;23;20104;-85
2022/11/29 00:18:30;;;;;;;9.55;3.97;;;7.80;99.90;;;;;;6158907;23;20025;-85
2022/11/29 00:20:56;;;;;;;10.13;3.63;;;8.10;99.90;;;;;;6184869;23;20056;-86
2022/11/29 00:23:22;;;;;;;8.50;2.90;;;8.50;99.90;;;;;;6184579;23;20084;-85
2022/11/29 00:25:47;;;;;;;7.47;2.65;;;7.70;99.90;;;;;;6184627;23;20021;-85
2022/11/29 00:28:13;;;;;;;7.15;2.88;;;8.30;99.90;;;;;;6157928;23;20045;-85
2022/11/29 00:30:39;;;;;;;6.80;2.78;;;8.10;99.90;;;;;;6185079;23;20031;-86
2022/11/29 00:33:05;;;;;;;6.28;2.30;;;8.50;99.90;;;;;;6184308;23;20024;-85
2022/11/29 00:35:31;;;;;;;9.05;3.50;;;8.60;99.90;;;;;;6185015;23;20055;-85
2022/11/29 00:37:57;;;;;;;8.77;3.85;;;7.70;99.90;;;;;;6158164;23;20017;-85
2022/11/29 00:40:23;;;;;;;8.93;3.75;;;8.40;99.90;;;;;;6185280;23;20009;-85
2022/11/29 00:42:49;;;;;;;7.53;2.72;;;8.30;99.90;;;;;;6185057;23;20051;-85
2022/11/29 00:45:14;;;;;;;8.85;3.20;;;7.70;99.90;;;;;;6184892;23;20009;-85
2022/11/29 00:47:40;;;;;;;9.27;3.70;;;7.70;99.90;;;;;;6184985;23;20037;-85
2022/11/29 00:50:07;;;;;;;10.23;2.83;;;8.00;99.90;;;;;;6184247;23;20066;-85
2022/11/29 00:52:33;;;;;;;7.88;3.00;;;7.60;99.90;;;;;;6184912;23;20052;-86
2022/11/29 00:54:59;;;;;;;8.05;2.55;;;7.60;99.90;;;;;;6184673;23;20021;-84
2022/11/29 00:57:24;;;;;;;7.55;3.10;;;8.60;99.90;;;;;;6184260;23;20013;-84
2022/11/29 00:59:50;;;;;;;7.35;2.28;;;8.40;99.90;;;;;;6185169;23;20028;-85
2022/11/29 01:02:15;;;;;;;6.80;2.45;;;8.30;99.90;;;;;;6186990;23;20056;-85
2022/11/29 01:04:41;;;;;;;8.55;2.60;;;8.20;99.90;;;;;;6186552;23;20016;-85
2022/11/29 01:07:07;;;;;;;9.32;3.50;;;7.60;99.90;;;;;;6159906;23;20021;-85
2022/11/29 01:09:32;;;;;;;6.18;2.65;;;7.80;99.90;;;;;;6186657;23;20392;-85
2022/11/29 01:11:58;;;;;;;7.20;2.50;;;7.60;99.90;;;;;;6186542;23;20076;-85
2022/11/29 01:14:24;;;;;;;9.07;3.10;;;7.80;99.90;;;;;;6186571;23;20317;-84
2022/11/29 01:16:49;;;;;;;7.53;2.58;;;7.60;99.90;;;;;;6160428;23;20075;-85
2022/11/29 01:19:15;;;;;;;6.13;2.42;;;8.10;99.90;;;;;;6159952;23;20027;-85
2022/11/29 01:21:41;;;;;;;7.65;2.33;;;8.20;99.90;;;;;;6186605;23;20310;-85
2022/11/29 01:24:06;;;;;;;7.75;3.35;;;6.80;99.90;;;;;;6186701;23;20041;-85
2022/11/29 01:26:32;;;;;;;5.68;2.40;;;7.40;99.90;;;;;;6159523;23;20041;-84
2022/11/29 01:28:58;;;;;;;8.13;2.95;;;7.40;99.90;;;;;;6186636;23;20096;-85
2022/11/29 01:31:30;;;;;;;7.90;3.30;;;8.20;99.90;;;;;;6185851;23;20092;-84
2022/11/29 01:33:59;;;;;;;7.72;2.92;;;7.40;99.90;;;;;;6186027;23;20017;-85
2022/11/29 01:36:25;;;;;;;11.30;4.05;;;6.80;99.90;;;;;;6186182;23;20532;-86
2022/11/29 01:38:51;;;;;;;9.10;3.13;;;7.50;99.90;;;;;;6159779;23;20571;-85
2022/11/29 01:41:21;;;;;;;6.80;2.88;;;6.60;99.90;;;;;;6186509;23;20056;-85
2022/11/29 01:44:25;;;;;;;6.88;2.90;;;7.40;99.90;;;;;;6186090;23;20043;-85
2022/11/29 01:46:53;;;;;;;6.63;2.75;;;7.40;99.90;;;;;;6159728;23;20021;-84
2022/11/29 01:49:43;;;;;;;5.72;2.22;;;7.90;99.90;;;;;;6186061;23;20092;-85
2022/11/29 01:52:13;;;;;;;7.18;2.80;;;7.40;99.90;;;;;;6159371;23;20049;-85
2022/11/29 01:54:42;;;;;;;6.93;2.80;;;7.90;99.90;;;;;;6159683;23;20096;-85
2022/11/29 01:57:08;;;;;;;5.80;2.45;;;8.00;99.90;;;;;;6185876;23;20399;-85
2022/11/29 01:59:37;;;;;;;8.50;2.13;;;6.60;99.90;;;;;;6186241;23;20013;-85
2022/11/29 02:02:12;;;;;;;6.82;2.58;;;7.30;99.90;;;;;;6159682;23;20025;-85
2022/11/29 02:04:40;;;;;;;7.07;3.03;;;7.40;99.90;;;;;;6159362;23;20025;-84
2022/11/29 02:07:06;;;;;;;7.72;2.65;;;6.40;99.90;;;;;;6186166;23;20017;-85
2022/11/29 02:09:32;;;;;;;7.28;2.55;;;6.50;99.90;;;;;;6186052;23;20122;-86
2022/11/29 02:12:28;;;;;;;4.68;2.28;;;7.60;99.90;;;;;;6185362;23;20013;-85
2022/11/29 02:14:57;;;;;;;7.95;2.92;;;7.40;99.90;;;;;;6186110;23;20131;-85
2022/11/29 02:17:34;;;;;;;8.00;3.28;;;7.40;99.90;;;;;;6159217;23;20404;-86
2022/11/29 02:20:00;;;;;;;7.25;2.80;;;7.30;99.90;;;;;;6186028;23;20032;-85
2022/11/29 02:22:42;;;;;;;7.18;2.83;;;8.30;99.90;;;;;;6186087;23;20017;-85
2022/11/29 02:25:34;;;;;;;6.85;2.95;;;7.40;99.90;;;;;;6185641;23;20460;-85
2022/11/29 02:28:24;;;;;;;10.18;3.95;;;7.30;99.90;;;;;;6185237;23;20027;-85
2022/11/29 02:31:02;;;;;;;8.60;3.45;;;7.40;99.90;;;;;;6185673;23;20468;-84
2022/11/29 02:33:36;;;;;;;7.25;2.90;;;7.40;99.90;;;;;;6185524;23;20021;-85
2022/11/29 02:36:02;;;;;;;7.20;3.08;;;7.30;99.90;;;;;;6159112;23;20020;-86
2022/11/29 02:38:51;;;;;;;8.15;3.63;;;8.10;99.90;;;;;;6185877;23;20092;-85
2022/11/29 02:42:01;;;;;;;8.55;3.30;;;7.30;99.90;;;;;;6158289;23;20017;-84
2022/11/29 02:44:39;;;;;;;6.32;2.60;;;7.30;99.90;;;;;;6037128;23;20072;-86
2022/11/29 02:47:37;;;;;;;8.52;3.40;;;7.30;99.90;;;;;;6037076;23;20023;-86
2022/11/29 02:50:05;;;;;;;7.07;3.03;;;7.70;99.90;;;;;;5952284;24;20021;-85
2022/11/29 02:52:40;;;;;;;7.88;3.25;;;7.30;99.90;;;;;;5952206;24;20023;-85
2022/11/29 02:55:16;;;;;;;9.23;3.67;;;7.30;99.90;;;;;;5952623;24;20346;-86
2022/11/29 02:57:54;;;;;;;8.85;3.35;;;7.30;99.90;;;;;;5952756;24;20016;-84
2022/11/29 03:00:21;;;;;;;10.40;3.58;;;7.30;99.90;;;;;;5952492;24;20488;-85
2022/11/29 03:02:50;;;;;;;9.43;3.67;;;7.30;99.90;;;;;;5952640;24;20036;-85
2022/11/29 03:05:18;;;;;;;10.02;3.28;;;8.00;99.90;;;;;;5952597;24;20016;-85
2022/11/29 03:08:14;;;;;;;8.73;3.25;;;7.30;99.90;;;;;;5952482;24;20487;-84
2022/11/29 03:11:08;;;;;;;8.00;3.13;;;7.30;99.90;;;;;;5952656;24;20028;-84
2022/11/29 03:13:51;;;;;;;7.75;3.10;;;7.20;99.90;;;;;;5952463;24;20025;-84
2022/11/29 03:16:20;;;;;;;8.45;3.65;;;7.30;99.90;;;;;;5952485;24;20122;-84
2022/11/29 03:19:23;;;;;;;10.32;3.20;;;6.60;99.90;;;;;;5952340;24;20021;-85
2022/11/29 03:22:04;;;;;;;10.07;3.45;;;7.30;99.90;;;;;;6010295;23;20540;-84
2022/11/29 03:24:41;;;;;;;12.00;4.70;;;7.30;99.90;;;;;;6065205;23;20030;-85
2022/11/29 03:27:15;;;;;;;10.07;3.65;;;7.30;99.90;;;;;;6097668;23;20348;-84
2022/11/29 03:29:53;;;;;;;9.05;3.33;;;7.30;99.90;;;;;;6158617;23;20020;-85
2022/11/29 03:32:53;;;;;;;8.50;3.75;;;7.30;99.90;;;;;;6158382;23;20084;-85
2022/11/29 03:35:47;;;;;;;9.63;3.80;;;7.30;99.90;;;;;;6185312;23;20112;-85
2022/11/29 03:38:44;;;;;;;8.20;3.50;;;7.30;99.90;;;;;;6185279;23;20344;-85
2022/11/29 03:41:32;;;;;;;7.88;3.45;;;7.30;99.90;;;;;;6158374;23;20060;-84
2022/11/29 03:44:21;;;;;;;8.32;2.63;;;7.30;99.90;;;;;;6185291;23;20087;-85
2022/11/29 03:47:22;;;;;;;7.40;3.15;;;7.30;99.90;;;;;;6159358;23;20009;-85
2022/11/29 03:49:56;;;;;;;7.90;3.17;;;8.10;99.90;;;;;;6036332;23;20383;-85
2022/11/29 03:52:33;;;;;;;6.53;3.28;;;7.20;99.90;;;;;;6036235;23;20373;-85
2022/11/29 03:55:13;;;;;;;7.55;3.30;;;7.20;99.90;;;;;;6036333;23;20027;-85
2022/11/29 03:58:20;;;;;;;8.85;3.25;;;7.20;99.90;;;;;;6036227;23;20050;-85
2022/11/29 04:00:46;;;;;;;;;;;7.20;99.90;;;;;;5952494;24;20020;-85
2022/11/29 04:03:30;;;;;;;11.13;3.80;;;7.20;99.90;;;;;;5952289;24;19919;-85
2022/11/29 04:06:09;;;;;;;8.02;3.83;;;7.60;99.90;;;;;;5952038;24;20031;-85
2022/11/29 04:09:04;;;;;;;9.00;3.75;;;7.20;99.90;;;;;;5951832;24;20020;-85
2022/11/29 04:11:53;;;;;;;8.10;3.47;;;7.20;99.90;;;;;;5928667;24;20056;-85
2022/11/29 04:14:40;;;;;;;7.07;3.05;;;7.10;99.90;;;;;;5951905;24;20024;-85
2022/11/29 04:17:42;;;;;;;5.97;3.05;;;7.10;99.90;;;;;;5952062;24;20473;-85
2022/11/29 04:20:16;;;;;;;8.23;3.78;;;7.10;99.90;;;;;;5952142;24;20024;-86
2022/11/29 04:22:51;;;;;;;6.68;3.33;;;7.10;99.90;;;;;;5928653;24;20073;-86
2022/11/29 04:25:54;;;;;;;8.10;3.53;;;7.40;99.90;;;;;;6019507;23;20054;-85
2022/11/29 04:28:37;;;;;;;7.55;2.83;;;7.10;99.90;;;;;;6093803;23;20679;-85
2022/11/29 04:31:24;;;;;;;7.03;3.47;;;7.00;99.90;;;;;;6093371;23;20114;-87
2022/11/29 04:34:11;;;;;;;11.82;3.78;;;7.00;99.90;;;;;;6093827;23;20093;-85
2022/11/29 04:36:49;;;;;;;6.68;3.05;;;7.00;99.90;;;;;;6096302;23;20021;-86
2022/11/29 04:39:14;;;;;;;7.65;3.30;;;7.00;99.90;;;;;;6187140;23;20321;-86
2022/11/29 04:41:59;;;;;;;7.38;3.17;;;7.00;99.90;;;;;;6186846;23;20013;-86
2022/11/29 04:45:06;;;;;;;7.13;3.45;;;6.90;99.90;;;;;;6160252;23;20021;-85
2022/11/29 04:47:50;;;;;;;6.82;3.08;;;6.90;99.90;;;;;;6187120;23;20377;-85
2022/11/29 04:50:24;;;;;;;5.72;2.58;;;6.90;99.90;;;;;;6186930;23;20013;-85
2022/11/29 04:53:05;;;;;;;6.07;3.10;;;6.90;99.90;;;;;;6185990;23;20016;-85
2022/11/29 04:56:07;;;;;;;6.88;3.00;;;6.90;99.90;;;;;;6160222;23;20021;-85
2022/11/29 04:58:58;;;;;;;7.75;3.03;;;6.90;99.90;;;;;;6160151;23;20032;-85
2022/11/29 05:01:49;;;;;;;9.07;3.97;;;6.90;99.90;;;;;;6160260;23;20462;-85
2022/11/29 05:04:36;;;;;;;8.18;3.47;;;6.90;99.90;;;;;;6186916;23;20013;-85
2022/11/29 05:07:26;;;;;;;10.48;3.70;;;6.80;99.90;;;;;;6160083;23;20017;-85
2022/11/29 05:10:31;;;;;;;7.57;3.13;;;7.50;99.90;;;;;;6159648;23;20351;-85
2022/11/29 05:13:26;;;;;;;7.78;3.80;;;6.80;99.90;;;;;;6013878;23;20034;-85
2022/11/29 05:16:13;;;;;;;7.20;3.17;;;6.80;99.90;;;;;;6037590;23;20059;-85
2022/11/29 05:18:47;;;;;;;10.30;3.60;;;6.80;99.90;;;;;;6037900;23;20159;-85
2022/11/29 05:21:38;;;;;;;7.20;3.30;;;6.70;99.90;;;;;;6037795;23;20548;-85
2022/11/29 05:24:24;;;;;;;7.80;3.22;;;6.80;99.90;;;;;;6037476;23;20023;-85
2022/11/29 05:26:58;;;;;;;5.70;2.80;;;6.70;99.90;;;;;;6036950;23;20019;-85
2022/11/29 05:29:39;;;;;;;7.80;3.30;;;6.70;99.90;;;;;;6037632;23;20028;-84
2022/11/29 05:32:29;;;;;;;6.82;3.10;;;6.70;99.90;;;;;;6037707;23;20431;-85
2022/11/29 05:35:15;;;;;;;9.90;3.13;;;6.50;99.90;;;;;;6037527;23;20099;-85
2022/11/29 05:37:55;;;;;;;;;;;6.60;99.90;;;;;;6038176;23;20367;-85
2022/11/29 05:40:27;;;;;;;7.70;2.85;;;6.60;99.90;;;;;;6037653;23;19997;-85
2022/11/29 05:43:00;;;;;;;7.93;2.47;;;6.60;99.90;;;;;;6037402;23;20019;-85
2022/11/29 05:45:35;;;;;;;4.88;2.38;;;7.40;99.90;;;;;;6037673;23;20027;-86
2022/11/29 05:48:16;;;;;;;6.40;2.75;;;6.60;99.90;;;;;;6013396;23;20082;-86
2022/11/29 05:50:48;;;;;;;8.90;3.83;;;6.60;99.90;;;;;;6169950;23;20336;-86
2022/11/29 05:53:28;;;;;;;5.82;2.70;;;7.20;99.90;;;;;;6186166;23;20031;-86
2022/11/29 05:56:24;;;;;;;6.57;2.50;;;6.60;99.90;;;;;;6159658;23;20436;-85
2022/11/29 05:58:57;;;;;;;7.25;3.22;;;7.40;99.90;;;;;;6160013;23;20032;-84
2022/11/29 06:01:44;;;;;;;8.30;3.95;;;6.70;99.90;;;;;;6159386;23;20024;-86
2022/11/29 06:04:22;;;;;;;4.57;2.15;;;6.50;99.90;;;;;;6185839;23;20440;-85
2022/11/29 06:07:21;;;;;;;8.27;2.95;;;6.90;99.90;;;;;;6159603;23;20023;-85
2022/11/29 06:09:58;;;;;;;5.38;3.05;;;6.50;99.90;;;;;;6185242;23;20445;-85
2022/11/29 06:12:25;;;;;;;7.35;2.63;;;6.50;99.90;;;;;;6186268;23;20384;-85
2022/11/29 06:15:16;;;;;;;5.97;2.35;;;6.50;99.90;;;;;;6186199;23;20033;-85
2022/11/29 06:18:00;;;;;;;6.80;2.28;;;6.50;99.90;;;;;;6186051;23;20025;-85
2022/11/29 06:20:41;;;;;;;7.82;2.75;;;7.20;99.90;;;;;;6186305;23;20021;-85
2022/11/29 06:23:27;;;;;;;5.05;2.35;;;6.50;99.90;;;;;;6159254;23;20013;-85
2022/11/29 06:26:12;;;;;;;;;;;6.50;99.90;;;;;;6159892;23;20096;-85
2022/11/29 06:29:00;;;;;;;5.97;3.20;;;6.50;99.90;;;;;;6186058;23;19924;-85
2022/11/29 06:31:37;;;;;;;7.22;3.15;;;6.50;99.90;;;;;;6159493;23;20149;-85
2022/11/29 06:34:08;;;;;;;7.38;3.10;;;6.50;99.90;;;;;;6186040;23;20021;-86
2022/11/29 06:36:50;;;;;;;4.97;2.35;;;6.50;99.90;;;;;;6186228;23;20630;-88
2022/11/29 06:39:16;;;;;;;7.50;3.95;;;6.50;99.90;;;;;;6159681;23;20461;-86
2022/11/29 06:41:41;;;;;;;6.85;2.78;;;6.50;99.90;;;;;;6159240;23;20044;-86
2022/11/29 06:44:08;;;;;;;6.60;2.83;;;7.20;99.90;;;;;;6185456;23;20017;-86
2022/11/29 06:46:46;;;;;;;5.13;2.60;;;6.50;99.90;;;;;;6159156;23;20013;-86
2022/11/29 06:49:38;;;;;;;8.25;3.88;;;6.40;99.90;;;;;;6185755;23;20053;-86
2022/11/29 06:52:27;;;;;;;7.22;3.03;;;6.10;99.90;;;;;;6185884;23;20028;-86
2022/11/29 06:55:14;;;;;;;6.45;2.63;;;6.40;99.90;;;;;;6159199;23;20024;-86
2022/11/29 06:57:52;;;;;;;5.80;2.80;;;6.50;99.90;;;;;;6158800;23;20440;-87
2022/11/29 07:00:19;;;;;;;7.95;2.92;;;7.30;99.90;;;;;;6159409;23;20025;-87
2022/11/29 07:03:22;;;;;;;5.20;2.28;;;6.50;99.90;;;;;;6158954;23;20013;-86
2022/11/29 07:05:48;;;;;;;5.40;2.45;;;6.50;99.90;;;;;;6185350;23;20017;-85
2022/11/29 07:08:22;;;;;;;5.25;2.38;;;6.50;99.90;;;;;;6159232;23;20079;-86
2022/11/29 07:10:52;;;;;;;5.00;2.30;;;6.50;99.90;;;;;;6159240;23;20019;-85
2022/11/29 07:13:19;;;;;;;4.40;1.98;;;6.50;99.90;;;;;;6158964;23;20017;-86
2022/11/29 07:16:12;;;;;;;6.18;2.40;;;7.40;99.90;;;;;;6159135;23;20025;-86
2022/11/29 07:18:38;;;;;;;5.07;2.33;;;5.70;99.90;;;;;;6185651;23;20352;-87
2022/11/29 07:21:22;;;;;;;3.67;1.50;;;6.50;99.90;;;;;;6185163;23;20079;-87
2022/11/29 07:24:23;;;;;;;4.10;1.63;;;6.50;99.90;;;;;;6185530;23;20044;-87
2022/11/29 07:27:12;;;;;;;9.32;3.17;;;6.50;99.90;;;;;;6153378;23;20054;-86
2022/11/29 07:30:01;;;;;;;5.00;2.08;;;7.40;99.90;;;;;;6154643;23;20088;-87
2022/11/29 07:35:18;;;;;;;5.57;2.30;;;6.50;99.90;;;;;;6181124;23;20021;-87
2022/11/29 07:38:02;;;;;;;7.28;1.83;;;6.50;99.90;;;;;;6158674;23;20033;-90
2022/11/29 07:40:44;;;;;;;4.70;2.33;;;7.50;99.90;;;;;;6158841;23;20020;-90
2022/11/29 07:43:25;;;;;;;4.20;1.85;;;6.50;99.90;;;;;;6158841;23;20062;-86
2022/11/29 07:45:51;;;;;;;7.22;2.70;;;6.50;99.90;;;;;;6158682;23;20444;-87
2022/11/29 07:48:17;;;;;;;4.57;1.60;;;6.70;99.90;;;;;;6158375;23;20047;-87
2022/11/29 07:50:43;;;;;;;3.22;1.50;;;7.40;99.90;;;;;;6133842;23;20056;-87
2022/11/29 07:53:20;;;;;;;4.07;2.05;;;7.20;99.90;;;;;;6158697;23;20466;-87
2022/11/29 07:55:47;;;;;;;4.82;1.73;;;7.50;99.90;;;;;;6158558;23;20420;-86
2022/11/29 07:58:14;;;;;;;3.60;1.50;;;5.40;99.90;;;;;;6185248;23;20467;-87
2022/11/29 08:00:41;;;;;;;4.32;1.70;;;6.20;99.90;;;;;;6184757;23;20087;-87
2022/11/29 08:03:08;;;;;;;4.72;2.05;;;6.40;99.90;;;;;;6184756;23;20028;-87
2022/11/29 08:05:34;;;;;;;3.53;1.80;;;6.00;99.90;;;;;;6184906;23;20017;-86
2022/11/29 08:08:00;;;;;;;3.63;1.48;;;6.80;99.90;;;;;;6184725;23;20456;-86
2022/11/29 08:10:26;;;;;;;4.90;2.05;;;7.50;99.90;;;;;;6158609;23;20024;-87
2022/11/29 08:12:52;;;;;;;2.63;1.38;;;6.60;99.90;;;;;;6184704;23;20083;-86
2022/11/29 08:15:19;;;;;;;3.97;1.67;;;7.70;99.90;;;;;;6185125;23;20393;-88
2022/11/29 08:17:45;;;;;;;5.80;2.17;;;6.80;99.90;;;;;;6158112;23;20335;-86
2022/11/29 08:20:13;;;;;;;5.15;2.20;;;7.70;99.90;;;;;;6184635;23;20500;-87
2022/11/29 08:22:39;;;;;;;3.95;1.73;;;6.90;99.90;;;;;;6158618;23;20017;-87
2022/11/29 08:25:06;;;;;;;3.47;1.58;;;7.70;99.90;;;;;;6185027;23;20064;-85
2022/11/29 08:27:32;;;;;;;3.80;1.55;;;6.90;99.90;;;;;;6184853;23;20583;-86
2022/11/29 08:29:58;;;;;;;4.78;1.88;;;6.90;99.90;;;;;;6158734;23;20359;-85
2022/11/29 08:32:25;;;;;;;4.47;2.08;;;6.10;99.90;;;;;;6158346;23;20017;-85
2022/11/29 08:34:51;;;;;;;3.72;1.73;;;7.80;99.90;;;;;;6184802;23;20340;-85
2022/11/29 08:37:17;;;;;;;5.63;1.90;;;7.20;99.90;;;;;;6184960;23;20013;-85
2022/11/29 08:39:43;;;;;;;3.67;1.70;;;7.60;99.90;;;;;;6184857;23;20043;-85
2022/11/29 08:42:09;;;;;;;3.45;1.30;;;7.80;99.90;;;;;;6158593;23;20021;-85
2022/11/29 08:44:34;;;;;;;5.07;2.20;;;6.30;99.90;;;;;;6185181;23;20020;-85
2022/11/29 08:50:00;;;;;;;10.00;3.65;;;7.90;99.90;;;;;;6185389;23;20028;-86
2022/11/29 08:55:14;;;;;;;7.35;2.75;;;7.90;99.90;;;;;;6158636;23;20036;-87
2022/11/29 08:57:40;;;;;;;6.28;2.13;;;7.20;99.90;;;;;;6185166;23;20032;-86
2022/11/29 09:00:07;;;;;;;7.25;3.53;;;7.30;99.90;;;;;;6184879;23;20016;-85
2022/11/29 09:02:32;;;;;;;6.45;2.40;;;7.30;99.90;;;;;;6184972;23;20017;-86
2022/11/29 09:04:58;;;;;;;7.13;2.22;;;8.10;99.90;;;;;;6185102;23;20444;-85
2022/11/29 09:07:24;;;;;;;4.22;1.75;;;8.30;99.90;;;;;;6159196;23;20341;-85
2022/11/29 09:09:49;;;;;;;5.60;1.60;;;8.20;99.90;;;;;;6185171;23;20084;-85
2022/11/29 09:12:15;;;;;;;6.15;2.03;;;7.90;99.90;;;;;;6158056;23;20321;-85
2022/11/29 09:14:41;;;;;;;4.75;1.80;;;7.90;99.90;;;;;;6184991;23;20440;-87
2022/11/29 09:17:06;;;;;;;4.38;1.88;;;8.20;99.90;;;;;;6158665;23;20348;-85
2022/11/29 09:19:32;;;;;;;4.25;1.60;;;7.50;99.90;;;;;;6158498;23;20027;-87
2022/11/29 09:21:58;;;;;;;8.60;2.83;;;8.30;99.90;;;;;;6159648;23;20017;-87
2022/11/29 09:24:23;;;;;;;6.78;1.83;;;8.50;99.90;;;;;;6159908;23;20009;-86
2022/11/29 09:26:49;;;;;;;6.10;1.70;;;6.10;99.90;;;;;;6160515;23;20087;-86
2022/11/29 09:29:16;;;;;;;4.95;2.08;;;7.60;99.90;;;;;;6160160;23;20028;-86
2022/11/29 09:31:46;;;;;;;8.18;3.38;;;8.00;99.90;;;;;;6160106;23;20344;-86
2022/11/29 09:34:13;;;;;;;6.72;2.53;;;8.40;99.90;;;;;;6159785;23;20356;-86
2022/11/29 09:36:39;;;;;;;4.10;1.80;;;7.80;99.90;;;;;;6186768;23;20087;-86
2022/11/29 09:39:05;;;;;;;8.13;4.18;;;8.60;99.90;;;;;;6187025;23;20025;-86
2022/11/29 09:41:36;;;;;;;21.58;20.00;;;7.60;99.90;;;;;;6160357;23;20337;-86
2022/11/29 09:44:13;;;;;;;4.05;1.73;;;7.80;99.90;;;;;;6186341;23;20021;-86
2022/11/29 09:46:44;;;;;;;4.45;1.25;;;7.90;99.90;;;;;;6186372;23;20511;-86
2022/11/29 09:49:25;;;;;;;6.53;2.00;;;8.70;99.90;;;;;;6160057;23;20074;-86
2022/11/29 09:52:14;;;;;;;4.90;1.92;;;8.00;99.90;;;;;;6186424;23;20531;-86
2022/11/29 09:54:56;;;;;;;2.88;1.30;;;8.00;99.90;;;;;;6186727;23;20017;-86
2022/11/29 09:57:25;;;;;;;12.18;10.05;;;8.10;99.90;;;;;;6186164;23;20017;-86
2022/11/29 10:00:00;;;;;;;17.75;15.85;;;8.20;99.90;;;;;;6186718;23;20020;-86
2022/11/29 10:02:44;;;;;;;20.63;18.75;;;8.20;99.90;;;;;;6186494;23;20024;-86
2022/11/29 10:05:22;;;;;;;6.40;2.60;;;8.30;99.90;;;;;;6186467;23;20017;-86
2022/11/29 10:08:02;;;;;;;8.95;3.28;;;8.30;99.90;;;;;;6186423;23;20025;-86
2022/11/29 10:10:40;;;;;;;12.10;3.38;;;8.40;99.90;;;;;;6186270;23;20017;-87
2022/11/29 10:13:28;;;;;;;5.68;2.78;;;8.40;99.90;;;;;;6186333;23;20088;-85
2022/11/29 10:16:00;;;;;;;10.95;4.85;;;9.30;99.90;;;;;;6186124;23;20024;-85
2022/11/29 10:18:37;;;;;;;10.77;4.97;;;9.30;99.90;;;;;;6158573;23;20017;-84
2022/11/29 10:21:16;;;;;;;11.15;6.28;;;9.40;99.90;;;;;;6186121;23;20017;-84
2022/11/29 10:23:49;;;;;;;12.80;4.68;;;8.80;99.90;;;;;;6159679;23;20017;-84
2022/11/29 10:26:16;;;;;;;13.48;6.05;;;8.90;99.90;;;;;;6186168;23;20039;-84
2022/11/29 10:28:46;;;;;;;8.70;4.55;;;9.60;99.90;;;;;;6159336;23;20013;-82
2022/11/29 10:31:25;;;;;;;10.30;4.75;;;9.10;99.90;;;;;;6186181;23;20017;-85
2022/11/29 10:33:52;;;;;;;12.65;4.53;;;8.70;99.90;;;;;;6184810;23;20020;-85
2022/11/29 10:36:45;;;;;;;11.75;5.10;;;8.80;99.90;;;;;;6186124;23;20463;-85
2022/11/29 10:39:36;;;;;;;8.68;4.25;;;8.80;99.90;;;;;;6013294;23;20070;-85
2022/11/29 10:42:05;;;;;;;7.18;3.88;;;8.90;99.90;;;;;;6036874;23;20023;-85
2022/11/29 10:44:32;;;;;;;12.15;4.45;;;8.90;99.90;;;;;;6037216;23;20055;-85
2022/11/29 10:47:01;;;;;;;11.57;5.28;;;9.00;99.90;;;;;;5989984;23;20375;-85
2022/11/29 10:49:31;;;;;;;10.30;5.05;;;9.60;99.90;;;;;;6036783;23;20063;-85
2022/11/29 10:51:57;;;;;;;9.50;4.95;;;9.20;99.90;;;;;;6036513;23;20483;-83
2022/11/29 10:54:41;;;;;;;11.60;5.28;;;10.10;99.90;;;;;;6036819;23;20019;-83
2022/11/29 10:57:13;;;;;;;14.10;5.60;;;9.30;99.90;;;;;;6036917;23;20050;-85
2022/11/29 10:59:39;;;;;;;13.05;6.13;;;10.10;99.90;;;;;;6036641;23;20269;-84
2022/11/29 11:02:17;;;;;;;13.23;5.60;;;9.30;99.90;;;;;;6036532;23;20098;-83
2022/11/29 11:04:45;;;;;;;14.35;5.65;;;9.90;99.90;;;;;;6036797;23;20037;-85
2022/11/29 11:07:24;;;;;;;10.27;5.00;;;9.30;99.90;;;;;;6036648;23;20019;-84
2022/11/29 11:09:54;;;;;;;7.15;3.63;;;10.00;99.90;;;;;;6012600;23;20474;-84
2022/11/29 11:12:26;;;;;;;10.60;5.20;;;10.00;99.90;;;;;;6012703;23;20529;-84
2022/11/29 11:15:23;;;;;;;13.13;4.63;;;10.30;99.90;;;;;;6036648;23;20098;-84
2022/11/29 11:18:03;;;;;;;12.20;5.55;;;9.40;99.90;;;;;;6185408;23;20014;-85
2022/11/29 11:20:39;;;;;;;11.32;4.32;;;10.20;99.90;;;;;;6158603;23;20025;-83
2022/11/29 11:23:21;;;;;;;13.70;5.93;;;10.10;99.90;;;;;;6184214;23;20013;-84
2022/11/29 11:25:48;;;;;;;11.93;5.88;;;9.60;99.90;;;;;;6185316;23;20032;-83
2022/11/29 11:28:21;;;;;;;10.10;3.80;;;9.80;99.90;;;;;;6158296;23;20017;-85
2022/11/29 11:30:57;;;;;;;14.65;4.57;;;9.30;99.90;;;;;;6185455;23;20091;-83
2022/11/29 11:33:27;;;;;;;10.35;4.45;;;9.60;99.90;;;;;;6158034;23;20017;-85
2022/11/29 11:36:21;;;;;;;8.32;4.53;;;9.40;99.90;;;;;;6184732;23;20021;-83
2022/11/29 11:38:55;;;;;;;10.18;4.50;;;9.40;99.90;;;;;;6185415;23;20398;-84
2022/11/29 11:44:37;;;;;;;10.55;5.30;;;9.30;99.90;;;;;;6184806;23;20428;-85
2022/11/29 11:47:13;;;;;;;13.55;6.57;;;9.30;99.90;;;;;;6185309;23;20072;-84
2022/11/29 11:50:03;;;;;;;10.75;6.13;;;9.80;99.90;;;;;;6184735;23;20017;-84
2022/11/29 11:52:38;;;;;;;12.73;4.93;;;9.40;99.90;;;;;;6184793;23;20332;-85
2022/11/29 11:55:23;;;;;;;7.47;3.53;;;9.60;99.90;;;;;;6184681;23;20071;-84
2022/11/29 11:58:00;;;;;;;8.43;4.13;;;9.30;99.90;;;;;;6184321;23;20017;-84
2022/11/29 12:00:42;;;;;;;8.38;4.80;;;9.30;99.90;;;;;;6184474;23;20096;-84
2022/11/29 12:03:30;;;;;;;10.77;4.68;;;9.20;99.90;;;;;;6158244;23;20518;-83
2022/11/29 12:06:18;;;;;;;7.82;3.97;;;9.10;99.90;;;;;;6184811;23;20136;-83
2022/11/29 12:08:47;;;;;;;7.38;3.78;;;9.10;99.90;;;;;;6011778;23;20078;-84
2022/11/29 12:11:16;;;;;;;7.60;4.05;;;9.70;99.90;;;;;;6036213;23;20019;-84
2022/11/29 12:13:46;;;;;;;7.40;3.88;;;9.60;99.90;;;;;;6035753;23;20370;-83
2022/11/29 12:16:26;;;;;;;5.53;3.58;;;9.90;99.90;;;;;;6035883;23;20023;-84
2022/11/29 12:18:59;;;;;;;5.20;3.10;;;9.70;99.90;;;;;;6012395;23;20447;-83
2022/11/29 12:21:32;;;;;;;5.15;3.22;;;8.90;99.90;;;;;;6035927;23;20019;-84
2022/11/29 12:24:25;;;;;;;7.55;4.30;;;9.70;99.90;;;;;;6036462;23;20068;-84
2022/11/29 12:26:54;;;;;;;7.78;4.15;;;8.90;99.90;;;;;;6035138;23;20027;-83
2022/11/29 12:29:21;;;;;;;8.05;4.63;;;8.90;99.90;;;;;;6036330;23;20023;-84
2022/11/29 12:32:02;;;;;;;8.18;4.13;;;8.90;99.90;;;;;;6036062;23;20047;-83
2022/11/29 12:34:52;;;;;;;11.73;4.88;;;9.40;99.90;;;;;;6035999;23;20344;-84
2022/11/29 12:37:29;;;;;;;7.95;4.20;;;8.80;99.90;;;;;;6036027;23;20573;-84
2022/11/29 12:40:13;;;;;;;7.65;3.92;;;8.80;99.90;;;;;;6012347;23;20020;-84
2022/11/29 12:42:50;;;;;;;8.95;5.15;;;8.80;99.90;;;;;;6035654;23;20466;-83
2022/11/29 12:45:33;;;;;;;9.32;4.35;;;8.80;99.90;;;;;;6051738;23;20017;-85
2022/11/29 12:48:14;;;;;;;12.13;5.65;;;8.80;99.90;;;;;;6183960;23;20055;-86
2022/11/29 12:51:26;;;;;;;11.88;5.55;;;8.80;99.90;;;;;;6184023;23;20347;-86
2022/11/29 12:54:21;;;;;;;11.57;5.40;;;8.70;99.90;;;;;;6165680;23;20096;-86
2022/11/29 12:57:05;;;;;;;9.73;5.38;;;8.60;99.90;;;;;;6158434;23;20024;-88
2022/11/29 13:00:08;;;;;;;10.38;4.97;;;8.60;99.90;;;;;;6159483;23;20021;-84
2022/11/29 13:02:34;;;;;;;7.20;3.85;;;8.60;99.90;;;;;;6159828;23;20084;-85
2022/11/29 13:05:32;;;;;;;8.98;4.55;;;9.20;99.90;;;;;;6186197;23;20383;-84
2022/11/29 13:08:22;;;;;;;8.93;4.25;;;8.50;99.90;;;;;;6186180;23;20479;-85
2022/11/29 13:11:25;;;;;;;8.43;3.92;;;8.50;99.90;;;;;;6186820;23;20027;-83
2022/11/29 13:14:21;;;;;;;8.20;3.67;;;8.50;99.90;;;;;;6160143;23;20021;-85
2022/11/29 13:17:00;;;;;;;8.60;4.45;;;8.40;99.90;;;;;;6156783;23;20021;-85
2022/11/29 13:19:50;;;;;;;6.68;3.90;;;8.40;99.90;;;;;;6186109;23;20467;-83
2022/11/29 13:22:17;;;;;;;7.53;3.35;;;8.40;99.90;;;;;;6159136;23;20028;-83
2022/11/29 13:24:48;;;;;;;6.07;3.78;;;8.40;99.90;;;;;;6186035;23;20013;-84
2022/11/29 13:27:34;;;;;;;8.35;4.43;;;9.10;99.90;;;;;;6159497;23;20021;-82
2022/11/29 13:30:00;;;;;;;13.70;5.85;;;8.40;99.90;;;;;;6185943;23;20020;-84
2022/11/29 13:32:43;;;;;;;8.48;4.65;;;9.10;99.90;;;;;;6186050;23;20017;-84
2022/11/29 13:35:26;;;;;;;10.65;5.68;;;9.10;99.90;;;;;;6186270;23;20028;-84
2022/11/29 13:38:02;;;;;;;9.57;4.97;;;8.40;99.90;;;;;;6185291;23;20119;-84
2022/11/29 13:40:47;;;;;;;9.25;4.70;;;9.10;99.90;;;;;;6186396;23;20031;-84
2022/11/29 13:43:37;;;;;;;10.88;5.47;;;9.00;99.90;;;;;;6186539;23;20049;-84
2022/11/29 13:46:15;;;;;;;9.13;4.72;;;8.40;99.90;;;;;;6157724;23;20029;-85
2022/11/29 13:48:48;;;;;;;9.55;4.85;;;8.70;99.90;;;;;;6185478;23;20098;-87
2022/11/29 13:51:36;;;;;;;8.25;4.28;;;8.30;99.90;;;;;;6159307;23;20017;-89
2022/11/29 13:54:25;;;;;;;13.43;5.45;;;8.40;99.90;;;;;;6134118;23;20464;-85
2022/11/29 13:57:02;;;;;;;10.10;4.90;;;8.30;99.90;;;;;;6159356;23;20031;-84